createdAt,value
2022-10-29T00:02:51.835Z,66.80
2022-10-29T00:06:54.894Z,66.90
2022-10-29T00:37:28.072Z,68.20
2022-10-29T00:41:31.263Z,68.00
2022-10-29T00:45:37.256Z,67.90
2022-10-29T00:49:42.708Z,67.90
2022-10-29T00:53:59.165Z,67.60
2022-10-29T00:58:02.165Z,67.90
2022-10-29T01:02:05.357Z,67.80
2022-10-29T01:06:09.018Z,67.70
2022-10-29T01:10:13.001Z,67.70
2022-10-29T01:14:34.042Z,67.50
2022-10-29T01:19:02.754Z,67.60
2022-10-29T01:23:33.822Z,67.50
2022-10-29T01:27:54.316Z,67.40
2022-10-29T01:32:14.790Z,67.40
2022-10-29T01:36:46.035Z,67.20
2022-10-29T01:40:59.990Z,67.30
2022-10-29T01:45:23.792Z,67.50
2022-10-29T01:49:41.221Z,67.50
2022-10-29T01:53:44.690Z,67.80
2022-10-29T01:57:49.137Z,68.00
2022-10-29T02:02:07.347Z,68.00
2022-10-29T02:07:07.752Z,67.80
2022-10-29T02:11:27.678Z,67.70
2022-10-29T02:15:51.462Z,67.70
2022-10-29T02:19:54.380Z,67.70
2022-10-29T02:23:57.236Z,67.70
2022-10-29T02:28:00.294Z,67.80
2022-10-29T02:32:03.237Z,67.70
2022-10-29T02:36:06.475Z,67.50
2022-10-29T02:40:09.932Z,67.30
2022-10-29T02:44:13.247Z,67.20
2022-10-29T02:48:16.170Z,67.30
2022-10-29T02:52:19.215Z,67.30
2022-10-29T02:56:22.922Z,67.30
2022-10-29T03:00:27.383Z,67.30
2022-10-29T03:04:30.527Z,67.30
2022-10-29T03:08:33.572Z,67.50
2022-10-29T03:12:42.458Z,67.60
2022-10-29T03:16:49.882Z,67.70
2022-10-29T03:20:53.044Z,67.80
2022-10-29T03:24:57.493Z,68.00
2022-10-29T03:29:02.425Z,68.20
2022-10-29T03:33:09.271Z,68.20
2022-10-29T03:37:13.343Z,68.50
2022-10-29T03:41:20.282Z,68.80
2022-10-29T03:45:26.735Z,69.30
2022-10-29T03:49:31.973Z,69.40
2022-10-29T03:53:37.810Z,69.30
2022-10-29T03:57:50.658Z,69.10
2022-10-29T04:01:53.715Z,69.30
2022-10-29T04:05:58.375Z,69.20
2022-10-29T04:10:12.103Z,69.20
2022-10-29T04:14:16.581Z,69.40
2022-10-29T04:18:28.684Z,69.50
2022-10-29T04:31:31.065Z,69.70
2022-10-29T04:35:38.769Z,69.80
2022-10-29T04:39:42.022Z,69.40
2022-10-29T04:43:44.904Z,69.80
2022-10-29T04:47:47.684Z,70.00
2022-10-29T04:51:50.590Z,70.00
2022-10-29T04:56:00.982Z,70.00
2022-10-29T05:00:04.611Z,70.20
2022-10-29T05:04:07.421Z,70.00
2022-10-29T05:08:12.293Z,70.10
2022-10-29T05:12:15.278Z,70.20
2022-10-29T05:16:18.347Z,70.30
2022-10-29T05:20:21.804Z,70.40
2022-10-29T05:24:24.633Z,70.50
2022-10-29T05:28:30.098Z,70.70
2022-10-29T05:32:33.108Z,70.80
2022-10-29T05:36:35.984Z,70.80
2022-10-29T05:40:39.250Z,70.90
2022-10-29T05:44:42.082Z,71.00
2022-10-29T05:48:44.785Z,71.20
2022-10-29T05:53:05.687Z,71.20
2022-10-29T05:57:08.451Z,71.70
2022-10-29T06:01:11.727Z,71.30
2022-10-29T06:05:14.907Z,71.50
2022-10-29T06:09:18.275Z,71.50
2022-10-29T06:13:22.429Z,71.60
2022-10-29T06:17:25.473Z,71.70
2022-10-29T06:21:28.292Z,71.70
2022-10-29T06:25:31.088Z,71.70
2022-10-29T06:29:33.878Z,71.70
2022-10-29T06:33:36.595Z,71.60
2022-10-29T06:37:39.680Z,71.70
2022-10-29T06:41:42.427Z,71.80
2022-10-29T06:45:45.345Z,71.90
2022-10-29T06:49:48.055Z,71.90
2022-10-29T06:53:50.777Z,71.90
2022-10-29T06:58:02.348Z,72.00
2022-10-29T07:02:05.101Z,72.10
2022-10-29T07:06:08.017Z,71.60
2022-10-29T07:10:10.836Z,71.40
2022-10-29T07:14:13.542Z,71.00
2022-10-29T07:18:16.368Z,71.10
2022-10-29T07:22:19.134Z,71.00
2022-10-29T07:26:21.962Z,71.00
2022-10-29T07:30:24.816Z,70.90
2022-10-29T07:34:28.748Z,70.90
2022-10-29T07:38:31.627Z,71.10
2022-10-29T07:42:34.392Z,71.10
2022-10-29T07:46:37.187Z,70.60
2022-10-29T07:50:40.234Z,70.30
2022-10-29T07:54:43.263Z,70.10
2022-10-29T07:58:46.041Z,70.00
2022-10-29T08:02:55.392Z,69.90
2022-10-29T08:06:58.302Z,70.10
2022-10-29T08:11:02.161Z,69.70
2022-10-29T08:15:05.951Z,69.10
2022-10-29T08:19:09.596Z,69.10
2022-10-29T08:23:13.537Z,68.60
2022-10-29T08:27:16.473Z,68.10
2022-10-29T08:31:19.567Z,67.80
2022-10-29T08:35:23.288Z,67.80
2022-10-29T08:39:26.017Z,67.40
2022-10-29T08:44:03.729Z,67.30
2022-10-29T08:48:30.350Z,66.80
2022-10-29T08:52:44.573Z,66.00
2022-10-29T08:57:08.823Z,64.70
2022-10-29T09:01:12.701Z,64.00
2022-10-29T09:05:19.830Z,64.30
2022-10-29T09:09:47.338Z,63.80
2022-10-29T09:14:02.117Z,63.40
2022-10-29T09:18:42.074Z,63.50
2022-10-29T09:22:59.850Z,63.40
2022-10-29T09:27:23.997Z,62.90
2022-10-29T09:31:31.720Z,60.50
2022-10-29T09:35:47.090Z,60.80
2022-10-29T09:39:50.688Z,60.50
2022-10-29T09:44:03.787Z,59.50
2022-10-29T09:48:24.200Z,58.30
2022-10-29T09:52:31.477Z,58.60
2022-10-29T09:56:34.321Z,57.90
2022-10-29T10:00:37.194Z,57.60
2022-10-29T10:04:45.879Z,56.80
2022-10-29T10:09:01.964Z,56.80
2022-10-29T10:13:06.716Z,56.50
2022-10-29T10:17:09.500Z,56.10
2022-10-29T10:21:34.076Z,55.70
2022-10-29T10:25:40.954Z,55.00
2022-10-29T10:29:45.236Z,54.60
2022-10-29T10:33:55.134Z,54.00
2022-10-29T10:38:00.361Z,54.00
2022-10-29T10:42:06.493Z,53.20
2022-10-29T10:46:27.438Z,53.20
2022-10-29T10:50:35.191Z,51.70
2022-10-29T10:54:42.186Z,50.50
2022-10-29T10:59:11.424Z,50.60
2022-10-29T11:03:20.501Z,50.70
2022-10-29T11:07:35.360Z,49.20
2022-10-29T11:11:44.942Z,47.50
2022-10-29T11:16:18.755Z,47.10
2022-10-29T11:20:32.585Z,48.90
2022-10-29T11:25:02.955Z,46.60
2022-10-29T11:29:23.341Z,46.90
2022-10-29T11:33:52.927Z,46.50
2022-10-29T11:38:10.025Z,47.50
2022-10-29T11:42:13.718Z,46.20
2022-10-29T11:46:37.610Z,45.80
2022-10-29T11:50:57.795Z,46.80
2022-10-29T11:55:19.809Z,46.10
2022-10-29T11:59:28.838Z,46.60
2022-10-29T12:04:21.200Z,45.10
2022-10-29T12:08:45.140Z,46.20
2022-10-29T12:13:03.343Z,46.00
2022-10-29T12:17:21.862Z,45.50
2022-10-29T12:21:33.451Z,45.10
2022-10-29T12:26:01.547Z,45.30
2022-10-29T12:30:10.188Z,46.50
2022-10-29T12:34:28.363Z,45.90
2022-10-29T12:38:41.675Z,44.90
2022-10-29T12:42:46.268Z,44.20
2022-10-29T12:47:14.628Z,44.30
2022-10-29T12:51:41.731Z,44.20
2022-10-29T12:55:46.772Z,44.30
2022-10-29T12:59:49.937Z,43.80
2022-10-29T13:03:55.740Z,43.90
2022-10-29T13:08:04.572Z,44.00
2022-10-29T13:12:12.539Z,43.60
2022-10-29T13:16:21.892Z,43.40
2022-10-29T13:20:33.010Z,43.50
2022-10-29T13:24:36.142Z,42.50
2022-10-29T13:28:38.870Z,42.70
2022-10-29T13:32:41.795Z,42.10
2022-10-29T13:36:44.728Z,41.80
2022-10-29T13:41:04.094Z,41.70
2022-10-29T13:45:12.298Z,42.30
2022-10-29T13:49:42.290Z,41.80
2022-10-29T13:53:55.684Z,41.70
2022-10-29T13:58:09.883Z,42.50
2022-10-29T14:02:44.209Z,42.50
2022-10-29T14:06:48.806Z,42.00
2022-10-29T14:10:59.392Z,41.40
2022-10-29T14:15:13.449Z,41.70
2022-10-29T14:19:23.042Z,42.40
2022-10-29T14:23:29.619Z,43.20
2022-10-29T14:27:32.376Z,42.60
2022-10-29T14:31:37.598Z,42.50
2022-10-29T14:35:40.518Z,42.50
2022-10-29T14:39:59.763Z,42.80
2022-10-29T14:44:31.812Z,44.00
2022-10-29T14:48:34.849Z,43.00
2022-10-29T14:52:48.478Z,43.10
2022-10-29T14:56:59.012Z,43.10
2022-10-29T15:01:05.959Z,44.30
2022-10-29T15:05:30.739Z,43.20
2022-10-29T15:09:33.542Z,43.80
2022-10-29T15:13:37.230Z,43.60
2022-10-29T15:18:15.663Z,43.50
2022-10-29T15:22:35.759Z,44.40
2022-10-29T15:26:54.965Z,44.20
2022-10-29T15:31:02.238Z,44.50
2022-10-29T15:35:10.477Z,44.40
2022-10-29T15:39:31.964Z,44.20
2022-10-29T15:43:55.979Z,44.50
2022-10-29T15:48:29.232Z,45.00
2022-10-29T15:52:53.713Z,45.30
2022-10-29T15:56:57.350Z,45.20
2022-10-29T16:01:00.274Z,45.40
2022-10-29T16:05:03.464Z,45.60
2022-10-29T16:09:06.356Z,45.90
2022-10-29T16:13:11.577Z,45.90
2022-10-29T16:17:16.657Z,46.30
2022-10-29T16:21:24.767Z,46.60
2022-10-29T16:25:28.625Z,47.00
2022-10-29T16:29:31.453Z,47.20
2022-10-29T16:33:34.328Z,47.40
2022-10-29T16:37:37.069Z,47.80
2022-10-29T16:41:39.936Z,48.00
2022-10-29T16:45:42.778Z,48.30
2022-10-29T16:49:45.646Z,47.70
2022-10-29T16:53:48.350Z,47.50
2022-10-29T16:57:51.126Z,47.00
2022-10-29T17:01:54.215Z,46.90
2022-10-29T17:06:09.122Z,48.30
2022-10-29T17:10:11.873Z,49.20
2022-10-29T17:14:14.857Z,50.00
2022-10-29T17:18:17.681Z,51.00
2022-10-29T17:22:20.657Z,51.40
2022-10-29T17:26:23.482Z,52.00
2022-10-29T17:30:26.284Z,52.50
2022-10-29T17:34:29.072Z,52.90
2022-10-29T17:38:31.905Z,53.20
2022-10-29T17:42:35.753Z,53.40
2022-10-29T17:46:39.948Z,53.80
2022-10-29T17:50:52.736Z,54.30
2022-10-29T17:54:55.477Z,54.30
2022-10-29T17:58:58.359Z,54.30
2022-10-29T18:03:01.103Z,54.30
2022-10-29T18:07:03.894Z,54.30
2022-10-29T18:11:14.320Z,54.60
2022-10-29T18:15:18.193Z,54.70
2022-10-29T18:19:21.164Z,55.30
2022-10-29T18:23:24.022Z,54.70
2022-10-29T18:27:27.071Z,55.00
2022-10-29T18:31:31.589Z,55.90
2022-10-29T18:35:34.480Z,57.20
2022-10-29T18:39:38.127Z,57.20
2022-10-29T18:43:40.878Z,57.80
2022-10-29T18:47:43.717Z,58.00
2022-10-29T18:51:46.733Z,58.40
2022-10-29T18:55:58.859Z,59.00
2022-10-29T19:00:01.603Z,59.10
2022-10-29T19:04:07.827Z,59.30
2022-10-29T19:08:12.551Z,59.50
2022-10-29T19:12:15.387Z,59.80
2022-10-29T19:16:18.547Z,60.10
2022-10-29T19:20:21.336Z,60.30
2022-10-29T19:24:24.132Z,60.60
2022-10-29T19:28:28.912Z,61.30
2022-10-29T19:32:31.753Z,61.70
2022-10-29T19:36:36.542Z,61.80
2022-10-29T19:40:39.299Z,62.00
2022-10-29T19:44:42.073Z,62.00
2022-10-29T19:48:50.478Z,62.10
2022-10-29T19:52:54.579Z,62.60
2022-10-29T19:56:57.881Z,62.70
2022-10-29T20:01:10.875Z,62.50
2022-10-29T20:05:13.695Z,63.30
2022-10-29T20:09:18.332Z,63.10
2022-10-29T20:13:21.233Z,63.20
2022-10-29T20:17:30.213Z,63.40
2022-10-29T20:21:33.088Z,63.20
2022-10-29T20:25:35.868Z,63.20
2022-10-29T20:29:38.723Z,63.60
2022-10-29T20:33:55.427Z,63.60
2022-10-29T20:37:58.403Z,63.50
2022-10-29T20:42:01.345Z,63.60
2022-10-29T20:46:04.763Z,63.60
2022-10-29T20:50:07.756Z,63.70
2022-10-29T20:54:10.723Z,63.70
2022-10-29T20:58:13.748Z,63.80
2022-10-29T21:02:16.756Z,64.10
2022-10-29T21:06:20.128Z,64.20
2022-10-29T21:10:22.976Z,64.50
2022-10-29T21:14:27.570Z,64.70
2022-10-29T21:18:30.382Z,64.90
2022-10-29T21:22:33.242Z,64.80
2022-10-29T21:26:36.049Z,65.00
2022-10-29T21:30:38.841Z,65.20
2022-10-29T21:34:41.638Z,65.30
2022-10-29T21:38:44.568Z,65.30
2022-10-29T21:42:47.422Z,65.20
2022-10-29T21:46:50.263Z,65.40
2022-10-29T21:51:08.172Z,65.40
2022-10-29T21:55:10.924Z,65.50
2022-10-29T21:59:13.686Z,65.60
2022-10-29T22:03:16.417Z,65.60
2022-10-29T22:07:19.273Z,65.90
2022-10-29T22:11:23.016Z,66.10
2022-10-29T22:15:25.795Z,66.20
2022-10-29T22:19:28.594Z,66.40
2022-10-29T22:23:31.589Z,66.50
2022-10-29T22:27:34.325Z,66.60
2022-10-29T22:31:37.130Z,66.50
2022-10-29T22:35:39.875Z,66.50
2022-10-29T22:39:42.940Z,66.80
2022-10-29T22:43:46.074Z,67.00
2022-10-29T22:47:48.843Z,67.10
2022-10-29T22:51:51.579Z,67.10
2022-10-29T22:55:55.212Z,67.00
2022-10-29T22:59:57.948Z,67.10
2022-10-29T23:04:01.704Z,66.80
2022-10-29T23:08:04.868Z,66.10
2022-10-29T23:12:07.649Z,64.60
2022-10-29T23:16:10.484Z,64.00
2022-10-29T23:20:13.508Z,62.80
2022-10-29T23:24:16.306Z,62.90
2022-10-29T23:28:19.141Z,63.40
2022-10-29T23:32:21.877Z,63.60
2022-10-29T23:36:26.011Z,63.70
2022-10-29T23:40:28.902Z,63.80
2022-10-29T23:44:31.722Z,63.70
2022-10-29T23:48:34.947Z,63.50
2022-10-29T23:52:37.676Z,63.60
2022-10-29T23:56:40.407Z,63.70
